createdAt,value
2018-12-31T18:23:42.835Z,7.33
2018-12-31T18:26:11.747Z,11.93
2018-12-31T18:28:40.526Z,16.27
2018-12-31T18:31:09.280Z,24.83
2018-12-31T18:33:38.102Z,36.83
2018-12-31T18:36:07.777Z,40.10
2018-12-31T18:38:36.827Z,40.57
2018-12-31T18:41:05.703Z,42.53
2018-12-31T18:43:34.533Z,46.80
2018-12-31T18:46:03.282Z,43.50
2018-12-31T18:48:32.379Z,40.07
2018-12-31T18:51:01.663Z,31.43
2018-12-31T18:53:31.124Z,50.43
2018-12-31T18:55:59.873Z,36.70
2018-12-31T18:58:28.787Z,34.30
2018-12-31T19:00:57.656Z,44.63
2018-12-31T19:03:26.811Z,38.50
2018-12-31T19:05:55.666Z,31.03
2018-12-31T19:08:24.420Z,28.37
2018-12-31T19:10:53.331Z,33.03
2018-12-31T19:13:22.140Z,29.83
2018-12-31T19:15:51.011Z,38.93
2018-12-31T19:18:20.007Z,39.00
2018-12-31T19:20:48.911Z,31.67
2018-12-31T19:23:17.763Z,38.97
2018-12-31T19:25:46.599Z,39.37
2018-12-31T19:28:15.335Z,34.87
2018-12-31T19:30:44.296Z,33.10
2018-12-31T19:33:13.119Z,29.77
2018-12-31T19:35:42.104Z,29.43
2018-12-31T19:38:11.013Z,25.00
2018-12-31T19:40:39.890Z,25.60
2018-12-31T19:43:08.890Z,23.47
2018-12-31T19:45:37.878Z,24.47
2018-12-31T19:48:06.660Z,38.43
2018-12-31T19:50:35.457Z,30.73
2018-12-31T19:53:04.566Z,24.30
2018-12-31T19:55:33.705Z,21.70
2018-12-31T19:58:02.529Z,23.83
2018-12-31T20:00:31.699Z,20.80
2018-12-31T20:03:00.687Z,22.13
2018-12-31T20:05:30.816Z,27.00
2018-12-31T20:08:00.126Z,20.70
2018-12-31T20:10:31.700Z,22.97
2018-12-31T20:13:00.541Z,27.60
2018-12-31T20:15:29.792Z,18.47
2018-12-31T20:17:59.066Z,54.50
2018-12-31T20:20:28.181Z,34.13
2018-12-31T20:22:57.531Z,39.43
2018-12-31T20:25:26.636Z,69.20
2018-12-31T20:27:56.614Z,57.10
2018-12-31T20:30:25.756Z,56.73
2018-12-31T20:32:54.826Z,57.00
2018-12-31T20:35:26.219Z,38.33
2018-12-31T20:37:57.208Z,30.27
2018-12-31T20:40:27.041Z,27.37
2018-12-31T20:42:55.974Z,28.73
2018-12-31T20:45:25.915Z,27.77
2018-12-31T20:48:01.809Z,26.03
2018-12-31T20:50:25.700Z,22.87
2018-12-31T20:52:55.596Z,24.05
2018-12-31T20:55:24.561Z,24.93
2018-12-31T20:57:53.500Z,26.07
2018-12-31T21:00:22.566Z,28.92
2018-12-31T21:02:54.441Z,35.70
2018-12-31T21:05:23.931Z,35.20
2018-12-31T21:07:53.307Z,33.58
2018-12-31T21:10:22.481Z,31.57
2018-12-31T21:12:54.053Z,27.47
2018-12-31T21:15:23.408Z,29.33
2018-12-31T21:17:53.729Z,19.40
2018-12-31T21:20:23.960Z,25.50
2018-12-31T21:22:53.077Z,27.75
2018-12-31T21:25:22.130Z,23.20
2018-12-31T21:27:52.222Z,21.53
2018-12-31T21:30:21.441Z,26.07
2018-12-31T21:32:50.313Z,27.13
2018-12-31T21:35:19.163Z,29.60
2018-12-31T21:37:48.220Z,26.12
2018-12-31T21:40:17.516Z,25.20
2018-12-31T21:42:46.610Z,24.40
2018-12-31T21:45:16.243Z,21.03
2018-12-31T21:47:45.223Z,17.33
2018-12-31T21:50:14.551Z,19.40
2018-12-31T21:52:43.773Z,19.60
2018-12-31T21:55:13.974Z,20.40
2018-12-31T21:57:43.586Z,19.47
2018-12-31T22:00:12.570Z,18.03
2018-12-31T22:02:41.659Z,18.30
2018-12-31T22:05:10.645Z,19.67
2018-12-31T22:07:39.729Z,23.67
2018-12-31T22:10:09.054Z,20.40
2018-12-31T22:12:37.915Z,18.20
2018-12-31T22:15:08.782Z,16.17
2018-12-31T22:17:37.544Z,13.37
2018-12-31T22:20:08.227Z,12.90
2018-12-31T22:22:37.327Z,15.67
2018-12-31T22:25:06.960Z,11.33
2018-12-31T22:27:36.400Z,52.13
2018-12-31T22:30:10.071Z,18.40
2018-12-31T22:32:38.956Z,17.43
2018-12-31T22:35:07.903Z,13.43
2018-12-31T22:37:36.779Z,14.83
2018-12-31T22:40:06.076Z,16.33
2018-12-31T22:42:35.075Z,17.30
2018-12-31T22:45:05.824Z,19.83
2018-12-31T22:47:35.011Z,23.40
2018-12-31T22:50:04.205Z,27.63
2018-12-31T22:52:33.373Z,25.73
2018-12-31T22:55:02.742Z,21.57
2018-12-31T22:57:31.665Z,20.83
2018-12-31T23:00:00.564Z,22.80
2018-12-31T23:02:29.490Z,29.50
2018-12-31T23:04:58.976Z,46.83
2018-12-31T23:07:28.207Z,70.30
2018-12-31T23:09:57.191Z,107.03
2018-12-31T23:12:26.786Z,180.70
2018-12-31T23:14:56.803Z,240.80
2018-12-31T23:17:25.676Z,172.98
2018-12-31T23:19:55.188Z,151.13
2018-12-31T23:22:24.259Z,215.28
2018-12-31T23:24:53.196Z,211.90
2018-12-31T23:27:22.274Z,236.63
2018-12-31T23:29:51.794Z,179.10
2018-12-31T23:32:22.695Z,154.87
2018-12-31T23:34:54.359Z,191.15
2018-12-31T23:37:23.672Z,151.95
2018-12-31T23:39:52.731Z,145.65
2018-12-31T23:42:22.041Z,205.37
2018-12-31T23:44:53.022Z,158.90
2018-12-31T23:47:26.206Z,149.20
2018-12-31T23:49:55.103Z,147.62
2018-12-31T23:52:24.995Z,148.37
2018-12-31T23:54:53.898Z,133.63
2018-12-31T23:57:25.061Z,117.03
2018-12-31T23:59:54.364Z,116.90
